Terminal Aerodrome Forecast
Issued by NWS Wilmington, OH

Current Version | Previous Version | Text Only | Print | Product List | Glossary Off
Versions: 1 2 3 4 5 6 7 8 9 10 11 12 13 14 15 16 17 18 19 20 21 22 23

224
FTUS41 KILN 151406 AAB
TAFDAY
TAF AMD
KDAY 151406Z 1514/1612 15009KT 4SM -SN OVC025
     FM151600 18012G22KT 1SM -SN OVC018
     FM152000 22012G22KT 3SM -SN OVC025
     FM152300 21010G18KT P6SM VCSH OVC012
     FM160300 26010G18KT P6SM OVC012
     FM160800 25008KT P6SM BKN025=

USA.gov is the U.S. government's official web portal to all federal, state and local government web resources and services.